首页
METAR-TAF:

METAR-TAF

机场 :

Odiham, 英格兰

纬度: 51-14N, 经度: 000-57W, 海拔: 123米

当前天气观测

该预报发布于47分钟前的08:20 UTC
风速8节,风向东南
温度 10°C
湿度 93%
气压 1006 hPa
能见度10公里或以上
少量云层高于2500英尺
散云层高于10000英尺

METAR: EGVO 170820Z 14008KT 9999 FEW025 SCT100 10/09 Q1006 TEMPO 7000 SHRA SCT014 RMK BLU TEMPO GRN

时间: 10:07 (09:07 UTC)

预报

该预报发布于1小时和39分钟前的07:28 UTC
预报有效从17日的 09点(UTC)到 17日的 21点(UTC)
风速10节,风向
能见度10公里或以上
散云层高于4000英尺
短暂存在
从 17日的 09点(UTC)到 17日的 21点(UTC)
能見度: 7000
散云层高于2000英尺
阵雨
几率 30% :
短暂存在
从 17日的 09点(UTC)到 17日的 21点(UTC)
能見度: 4000
多云层高于1400英尺, 积雨云.
大阵雨
几率 30% :
短暂存在
从 17日的 11点(UTC)到 17日的 21点(UTC)
风速16节,风向,有时为26节阵风

TAF: EGVO 170728Z 1709/1721 18010KT 9999 SCT040 TEMPO 1709/1721 7000 SHRA SCT020 PROB30 TEMPO 1709/1721 4000 +SHRA BKN014CB PROB30 TEMPO 1711/1721 18016G26KT

超过4000个机场的气象观测和天气预报(METAR&TAF报告)。

可查询的气象台以黄色和红色小点在地图上表示。

将鼠标移到小点上方,可查看气象台名称。

然后点击查看天气观测和预报。

如需切换地图:点击带黑十字的绿色按钮放大地图;点击带横线的绿色按钮缩小地图;或者点击绿色箭头查看邻近地区的地图。


METAR-TAF: